Weather at Fagerhaug Airfield

Public forecast

Using degrees Celsius for public forecast. Weather courtesy of forecast.io.

Closest aviation weather report (METAR) to Fagerhaug Airfield

Closest report is Røros Airport, 41.4 nm (76.7 km) E.

2024/05/30 06:20 (retrieved 22 minutes ago)

ENRO 300620Z 10003KT 060V160 CAVOK 13/06 Q1011

Closest aviation forecast (TAF) to Fagerhaug Airfield

Closest forecast is Trondheim Airport, Værnes, 56.5 nm (104.7 km) NNE.

2024/05/30 06:36 (retrieved 6 minutes ago)

TAF ENVA 300500Z 3006/3106 14008KT 9999 FEW040 BKN080 TEMPO 3015/3022 27012KT SHRA BKN030CB PROB30 TEMPO 3016/3020 TS